createdAt,value
2017-06-23T00:00:11.068Z,0
2017-06-23T00:01:12.053Z,0
2017-06-23T00:02:12.735Z,0
2017-06-23T00:03:13.427Z,0
2017-06-23T00:04:14.658Z,0
2017-06-23T00:05:15.397Z,0
2017-06-23T00:06:16.087Z,0
2017-06-23T00:07:17.107Z,0
2017-06-23T00:08:17.886Z,0
2017-06-23T00:09:18.690Z,0
2017-06-23T00:10:19.393Z,0
2017-06-23T00:11:20.087Z,0
2017-06-23T00:12:20.778Z,0
2017-06-23T00:13:21.466Z,0
2017-06-23T00:14:22.566Z,0
2017-06-23T00:15:23.250Z,0
2017-06-23T00:16:23.943Z,0
2017-06-23T00:17:24.644Z,0
2017-06-23T00:18:25.382Z,0
2017-06-23T00:19:26.781Z,0
2017-06-23T00:20:27.726Z,0
2017-06-23T00:21:28.465Z,0
2017-06-23T00:22:29.151Z,0
2017-06-23T00:23:29.856Z,0
2017-06-23T00:24:30.709Z,0
2017-06-23T00:25:31.396Z,0
2017-06-23T00:26:32.440Z,0
2017-06-23T00:27:33.133Z,0
2017-06-23T00:28:33.859Z,0
2017-06-23T00:29:34.600Z,0
2017-06-23T00:30:35.307Z,0
2017-06-23T00:31:36.008Z,0
2017-06-23T00:32:36.967Z,0
2017-06-23T00:33:37.651Z,0
2017-06-23T00:34:38.489Z,0
2017-06-23T00:35:39.184Z,0
2017-06-23T00:36:39.878Z,0
2017-06-23T00:37:40.577Z,0
2017-06-23T00:38:41.553Z,0
2017-06-23T00:39:42.347Z,0
2017-06-23T00:40:43.301Z,0
2017-06-23T00:41:44.014Z,0
2017-06-23T00:42:44.706Z,0
2017-06-23T00:43:45.394Z,0
2017-06-23T00:44:46.542Z,0
2017-06-23T00:45:47.300Z,0
2017-06-23T00:46:48.067Z,0
2017-06-23T00:47:48.761Z,0
2017-06-23T00:48:49.463Z,0
2017-06-23T00:49:50.254Z,0
2017-06-23T00:50:51.234Z,0
2017-06-23T00:51:51.922Z,0
2017-06-23T00:52:52.605Z,0
2017-06-23T00:53:53.354Z,0
2017-06-23T00:54:54.308Z,0
2017-06-23T00:55:54.993Z,0
2017-06-23T00:56:56.029Z,0
2017-06-23T00:57:56.713Z,0
2017-06-23T00:58:57.481Z,0
2017-06-23T00:59:58.243Z,0
2017-06-23T01:00:58.944Z,0
2017-06-23T01:01:59.681Z,0
2017-06-23T01:03:00.663Z,0
2017-06-23T01:04:01.354Z,0
2017-06-23T01:05:02.091Z,0
2017-06-23T01:06:02.831Z,0
2017-06-23T01:07:03.530Z,0
2017-06-23T01:08:04.218Z,0
2017-06-23T01:09:05.209Z,0
2017-06-23T01:10:05.898Z,0
2017-06-23T01:11:06.633Z,0
2017-06-23T01:12:07.320Z,0
2017-06-23T01:13:08.009Z,0
2017-06-23T01:14:08.707Z,0
2017-06-23T01:15:09.697Z,0
2017-06-23T01:16:10.654Z,0
2017-06-23T01:17:11.355Z,0
2017-06-23T01:18:12.039Z,0
2017-06-23T01:19:12.732Z,0
2017-06-23T01:20:13.414Z,0
2017-06-23T01:21:14.555Z,0
2017-06-23T01:22:15.303Z,0
2017-06-23T01:23:16.007Z,0
2017-06-23T01:24:16.691Z,0
2017-06-23T01:25:17.374Z,0
2017-06-23T01:26:18.123Z,0
2017-06-23T01:27:18.958Z,0
2017-06-23T01:28:19.943Z,0
2017-06-23T01:29:20.674Z,0
2017-06-23T01:30:21.364Z,0
2017-06-23T01:31:22.062Z,0
2017-06-23T01:32:22.784Z,0
2017-06-23T01:33:23.473Z,0
2017-06-23T01:34:24.468Z,0
2017-06-23T01:35:25.148Z,0
2017-06-23T01:36:25.834Z,0
2017-06-23T01:37:26.865Z,0
2017-06-23T01:38:27.556Z,0
2017-06-23T01:39:28.239Z,0
2017-06-23T01:40:29.229Z,0
2017-06-23T01:41:29.917Z,0
2017-06-23T01:42:30.659Z,0
2017-06-23T01:43:31.399Z,0
2017-06-23T01:44:32.129Z,0
2017-06-23T01:45:32.830Z,0
2017-06-23T01:46:33.798Z,0
2017-06-23T01:47:34.537Z,0
2017-06-23T01:48:35.231Z,0
2017-06-23T01:49:35.959Z,0
2017-06-23T01:50:36.644Z,0
2017-06-23T01:51:37.388Z,0
2017-06-23T01:52:38.373Z,0
2017-06-23T01:53:39.063Z,0
2017-06-23T01:54:39.735Z,0
2017-06-23T01:55:40.432Z,0
2017-06-23T01:56:41.220Z,0
2017-06-23T01:57:41.904Z,0
2017-06-23T01:58:42.589Z,0
2017-06-23T01:59:43.626Z,0
2017-06-23T02:00:44.314Z,0
2017-06-23T02:01:45.062Z,0
2017-06-23T02:02:45.857Z,0
2017-06-23T02:03:46.548Z,0
2017-06-23T02:04:47.240Z,0
2017-06-23T02:05:48.280Z,0
2017-06-23T02:06:48.962Z,0
2017-06-23T02:07:49.707Z,0
2017-06-23T02:08:50.387Z,0
2017-06-23T02:09:51.080Z,0
2017-06-23T02:10:51.812Z,0
2017-06-23T02:11:52.817Z,0
2017-06-23T02:12:53.536Z,0
2017-06-23T02:13:54.222Z,0
2017-06-23T02:14:54.910Z,0
2017-06-23T02:15:55.594Z,0
2017-06-23T02:16:56.279Z,0
2017-06-23T02:17:57.318Z,0
2017-06-23T02:18:58.047Z,0
2017-06-23T02:19:58.729Z,0
2017-06-23T02:20:59.417Z,0
2017-06-23T02:22:00.112Z,0
2017-06-23T02:23:00.869Z,0
2017-06-23T02:24:01.893Z,0
2017-06-23T02:25:02.606Z,0
2017-06-23T02:26:03.274Z,0
2017-06-23T02:27:03.975Z,0
2017-06-23T02:28:04.799Z,0
2017-06-23T02:29:05.483Z,0
2017-06-23T02:30:06.476Z,0
2017-06-23T02:31:07.174Z,0
2017-06-23T02:32:07.916Z,0
2017-06-23T02:33:08.702Z,0
2017-06-23T02:34:09.387Z,0
2017-06-23T02:35:10.069Z,0
2017-06-23T02:36:11.123Z,0
2017-06-23T02:37:11.855Z,0
2017-06-23T02:38:12.644Z,0
2017-06-23T02:39:13.328Z,0
2017-06-23T02:40:14.031Z,0
2017-06-23T02:41:14.714Z,0
2017-06-23T02:42:15.750Z,0
2017-06-23T02:43:16.785Z,0
2017-06-23T02:44:17.523Z,0
2017-06-23T02:45:18.201Z,0
2017-06-23T02:46:19.322Z,0
2017-06-23T02:47:20.022Z,0
2017-06-23T02:48:21.014Z,0
2017-06-23T02:49:21.699Z,0
2017-06-23T02:50:22.392Z,0
2017-06-23T02:51:23.126Z,0
2017-06-23T02:52:23.808Z,0
2017-06-23T02:53:24.543Z,0
2017-06-23T02:54:25.526Z,0
2017-06-23T02:55:26.222Z,0
2017-06-23T02:56:26.902Z,0
2017-06-23T02:57:27.591Z,0
2017-06-23T02:58:28.477Z,0
2017-06-23T02:59:29.170Z,0
2017-06-23T03:00:30.157Z,0
2017-06-23T03:01:30.854Z,0
2017-06-23T03:03:47.267Z,0
2017-06-23T03:04:48.005Z,0
2017-06-23T03:05:48.737Z,0
2017-06-23T03:06:49.774Z,0
2017-06-23T03:07:50.465Z,0
2017-06-23T03:08:51.251Z,0
2017-06-23T03:09:51.928Z,0
2017-06-23T03:10:52.620Z,0
2017-06-23T03:11:53.321Z,0
2017-06-23T03:12:54.346Z,0
2017-06-23T03:13:55.215Z,0
2017-06-23T03:14:55.874Z,0
2017-06-23T03:15:56.627Z,0
2017-06-23T03:16:57.324Z,0
2017-06-23T03:17:58.021Z,0
2017-06-23T03:18:59.099Z,0
2017-06-23T03:19:59.773Z,0
2017-06-23T03:21:00.493Z,0
2017-06-23T03:22:01.184Z,0
2017-06-23T03:23:01.864Z,0
2017-06-23T03:24:02.709Z,0
2017-06-23T03:25:03.692Z,0
2017-06-23T03:26:04.385Z,0
2017-06-23T03:27:05.138Z,0
2017-06-23T03:28:05.801Z,0
2017-06-23T03:29:06.495Z,0
2017-06-23T03:30:07.182Z,0
2017-06-23T03:31:08.184Z,0
2017-06-23T03:32:09.017Z,0
2017-06-23T03:33:09.698Z,0
2017-06-23T03:34:10.392Z,0
2017-06-23T03:35:11.083Z,0
2017-06-23T03:36:11.769Z,0
2017-06-23T03:37:12.798Z,0
2017-06-23T03:38:13.490Z,0
2017-06-23T03:39:14.183Z,0
2017-06-23T03:40:14.870Z,0
2017-06-23T03:41:15.557Z,0
2017-06-23T03:42:16.294Z,0
2017-06-23T03:43:17.291Z,0
2017-06-23T03:44:17.974Z,5
2017-06-23T03:45:18.655Z,5
2017-06-23T03:46:19.349Z,5
2017-06-23T03:47:20.145Z,5
2017-06-23T03:48:20.836Z,5
2017-06-23T03:49:21.527Z,5
2017-06-23T03:50:22.208Z,5
2017-06-23T03:51:22.888Z,5
2017-06-23T03:52:23.636Z,5
2017-06-23T03:53:24.371Z,5
2017-06-23T03:54:25.370Z,5
2017-06-23T03:55:26.046Z,5
2017-06-23T03:56:26.727Z,5
2017-06-23T03:57:27.489Z,5
2017-06-23T03:58:28.183Z,5
2017-06-23T03:59:28.872Z,5
2017-06-23T04:00:29.852Z,5
2017-06-23T04:01:30.546Z,5
2017-06-23T04:02:31.437Z,10
2017-06-23T04:03:32.140Z,10
2017-06-23T04:04:32.870Z,10
2017-06-23T04:05:33.613Z,10
2017-06-23T04:06:34.291Z,10
2017-06-23T04:07:35.291Z,10
2017-06-23T04:08:35.980Z,10
2017-06-23T04:09:36.667Z,10
2017-06-23T04:10:37.365Z,10
2017-06-23T04:11:38.047Z,10
2017-06-23T04:12:38.833Z,10
2017-06-23T04:13:39.840Z,10
2017-06-23T04:14:40.528Z,10
2017-06-23T04:15:41.217Z,10
2017-06-23T04:16:41.947Z,10
2017-06-23T04:17:42.650Z,15
2017-06-23T04:18:43.384Z,15
2017-06-23T04:19:44.427Z,15
2017-06-23T04:20:45.084Z,15
2017-06-23T04:21:45.809Z,15
2017-06-23T04:22:46.545Z,15
2017-06-23T04:23:47.250Z,15
2017-06-23T04:24:47.942Z,15
2017-06-23T04:25:48.950Z,15
2017-06-23T04:26:49.684Z,15
2017-06-23T04:27:50.540Z,15
2017-06-23T04:28:51.213Z,15
2017-06-23T04:29:51.966Z,15
2017-06-23T04:30:52.647Z,20
2017-06-23T04:31:53.634Z,20
2017-06-23T04:32:54.378Z,20
2017-06-23T04:33:55.086Z,20
2017-06-23T04:34:55.815Z,20
2017-06-23T04:35:56.500Z,20
2017-06-23T04:36:57.188Z,20
2017-06-23T04:37:57.980Z,20
2017-06-23T04:38:58.957Z,20
2017-06-23T04:39:59.654Z,20
2017-06-23T04:41:00.348Z,20
2017-06-23T04:42:01.033Z,20
2017-06-23T04:43:01.793Z,25
2017-06-23T04:44:02.478Z,25
2017-06-23T04:45:03.489Z,25
2017-06-23T04:46:04.158Z,25
2017-06-23T04:47:04.849Z,25
2017-06-23T04:48:05.685Z,25
2017-06-23T04:49:06.382Z,25
2017-06-23T04:50:07.065Z,30
2017-06-23T04:51:08.050Z,25
2017-06-23T04:52:08.814Z,30
2017-06-23T04:53:09.556Z,30
2017-06-23T04:54:10.255Z,30
2017-06-23T04:55:10.947Z,25
2017-06-23T04:56:11.640Z,30
2017-06-23T04:57:12.622Z,30
2017-06-23T04:58:13.369Z,30
2017-06-23T04:59:14.069Z,25
2017-06-23T05:00:14.789Z,30
2017-06-23T05:01:15.472Z,30
2017-06-23T05:02:16.222Z,30
2017-06-23T05:03:17.297Z,30
2017-06-23T05:04:18.000Z,30
2017-06-23T05:05:18.704Z,35
2017-06-23T05:06:19.425Z,35
2017-06-23T05:07:20.104Z,35
2017-06-23T05:08:20.915Z,30
2017-06-23T05:09:21.953Z,25
2017-06-23T05:10:22.633Z,25
2017-06-23T05:11:23.354Z,25
2017-06-23T05:12:24.043Z,20
2017-06-23T05:13:24.891Z,25
2017-06-23T05:14:25.568Z,20
2017-06-23T05:15:26.558Z,20
2017-06-23T05:16:27.259Z,25
2017-06-23T05:17:27.949Z,25
2017-06-23T05:18:28.790Z,25
2017-06-23T05:19:29.486Z,20
2017-06-23T05:20:30.164Z,25
2017-06-23T05:21:31.213Z,30
2017-06-23T05:22:31.908Z,35
2017-06-23T05:23:32.653Z,35
2017-06-23T05:24:33.340Z,35
2017-06-23T05:25:34.023Z,35
2017-06-23T05:26:34.721Z,40
2017-06-23T05:27:35.706Z,40
2017-06-23T05:28:36.556Z,40
2017-06-23T05:29:37.255Z,45
2017-06-23T05:30:37.941Z,45
2017-06-23T05:31:38.637Z,45
2017-06-23T05:32:39.429Z,45
2017-06-23T05:33:41.057Z,50
2017-06-23T05:34:41.746Z,55
2017-06-23T05:35:42.465Z,65
2017-06-23T05:36:43.150Z,65
2017-06-23T05:37:43.856Z,65
2017-06-23T05:38:44.638Z,70
2017-06-23T05:39:45.627Z,75
2017-06-23T05:40:46.316Z,75
2017-06-23T05:41:47.009Z,75
2017-06-23T05:42:47.712Z,80
2017-06-23T05:43:48.597Z,75
2017-06-23T05:44:49.285Z,70
2017-06-23T05:45:50.264Z,65
2017-06-23T05:46:50.964Z,65
2017-06-23T05:47:51.767Z,65
2017-06-23T05:48:52.538Z,65
2017-06-23T05:49:53.284Z,65
2017-06-23T05:50:54.335Z,65
2017-06-23T05:51:55.023Z,65
2017-06-23T05:52:56.021Z,65
2017-06-23T05:53:56.767Z,65
2017-06-23T05:54:57.449Z,75
2017-06-23T05:55:58.159Z,85
2017-06-23T05:56:58.897Z,85
2017-06-23T05:57:59.592Z,90
2017-06-23T05:59:00.732Z,90
2017-06-23T06:00:01.419Z,85
2017-06-23T06:01:02.124Z,80
2017-06-23T06:02:02.814Z,80
2017-06-23T06:03:03.516Z,85
2017-06-23T06:04:04.348Z,85
2017-06-23T06:05:05.326Z,85
2017-06-23T06:06:06.216Z,90
2017-06-23T06:07:06.920Z,90
2017-06-23T06:08:07.611Z,90
2017-06-23T06:09:08.301Z,85
2017-06-23T06:10:08.977Z,85
2017-06-23T06:11:10.090Z,90
2017-06-23T06:12:10.764Z,90
2017-06-23T06:13:11.493Z,90
2017-06-23T06:14:12.150Z,90
2017-06-23T06:15:12.837Z,90
2017-06-23T06:16:13.929Z,90
2017-06-23T06:17:14.920Z,90
2017-06-23T06:18:15.609Z,85
2017-06-23T06:19:16.310Z,90
2017-06-23T06:20:17.015Z,95
2017-06-23T06:21:17.814Z,95
2017-06-23T06:22:18.513Z,95
2017-06-23T06:23:19.518Z,100
2017-06-23T06:24:20.204Z,105
2017-06-23T06:25:20.903Z,105
2017-06-23T06:26:21.650Z,105
2017-06-23T06:27:22.393Z,100
2017-06-23T06:28:23.072Z,105
2017-06-23T06:29:24.068Z,105
2017-06-23T06:30:24.765Z,110
2017-06-23T06:31:25.508Z,105
2017-06-23T06:32:26.329Z,105
2017-06-23T06:33:27.020Z,105
2017-06-23T06:34:27.711Z,110
2017-06-23T06:35:28.421Z,110
2017-06-23T06:36:29.382Z,110
2017-06-23T06:37:30.409Z,110
2017-06-23T06:38:31.111Z,110
2017-06-23T06:39:31.807Z,110
2017-06-23T06:40:32.482Z,110
2017-06-23T06:41:33.223Z,110
2017-06-23T06:42:34.214Z,110
2017-06-23T06:43:34.953Z,110
2017-06-23T06:44:35.712Z,110
2017-06-23T06:45:36.408Z,105
2017-06-23T06:46:37.074Z,105
2017-06-23T06:47:37.767Z,105
2017-06-23T06:48:38.969Z,105
2017-06-23T06:49:39.658Z,105
2017-06-23T06:50:40.349Z,105
2017-06-23T06:51:41.057Z,105
2017-06-23T06:52:41.756Z,105
2017-06-23T06:53:42.720Z,110
2017-06-23T06:54:43.702Z,110
2017-06-23T06:55:44.405Z,110
2017-06-23T06:56:45.083Z,110
2017-06-23T06:57:45.879Z,115
2017-06-23T06:58:46.621Z,110
2017-06-23T06:59:47.314Z,110
2017-06-23T07:00:48.294Z,105
2017-06-23T07:01:49.033Z,105
2017-06-23T07:02:49.884Z,105
2017-06-23T07:03:50.641Z,105
2017-06-23T07:04:51.346Z,105
2017-06-23T07:05:52.084Z,100
2017-06-23T07:06:53.089Z,100
2017-06-23T07:07:53.942Z,100
2017-06-23T07:08:54.633Z,95
2017-06-23T07:09:55.325Z,95
2017-06-23T07:10:56.017Z,95
2017-06-23T07:11:56.728Z,90
2017-06-23T07:12:57.704Z,90
2017-06-23T07:13:58.426Z,90
2017-06-23T07:14:59.180Z,90
2017-06-23T07:15:59.891Z,90
2017-06-23T07:17:00.593Z,90
2017-06-23T07:18:01.587Z,90
2017-06-23T07:19:02.323Z,90
2017-06-23T07:20:03.262Z,95
2017-06-23T07:21:03.968Z,95
2017-06-23T07:22:04.707Z,95
2017-06-23T07:23:05.427Z,100
2017-06-23T07:24:06.218Z,100
2017-06-23T07:25:06.969Z,100
2017-06-23T07:26:07.720Z,105
2017-06-23T07:27:08.412Z,105
2017-06-23T07:28:09.113Z,110
2017-06-23T07:29:09.797Z,115
2017-06-23T07:30:10.495Z,115
2017-06-23T07:31:11.495Z,120
2017-06-23T07:32:12.203Z,120
2017-06-23T07:33:12.889Z,125
2017-06-23T07:34:13.586Z,125
2017-06-23T07:35:14.471Z,125
2017-06-23T07:36:15.235Z,125
2017-06-23T07:37:16.257Z,120
2017-06-23T07:38:16.975Z,120
2017-06-23T07:39:17.671Z,125
2017-06-23T07:40:18.358Z,125
2017-06-23T07:41:19.189Z,135
2017-06-23T07:42:19.919Z,130
2017-06-23T07:43:20.963Z,130
2017-06-23T07:44:21.658Z,130
2017-06-23T07:45:22.370Z,120
2017-06-23T07:46:23.172Z,115
2017-06-23T07:47:23.911Z,110
2017-06-23T07:48:24.598Z,110
2017-06-23T07:49:25.329Z,105
2017-06-23T07:50:26.307Z,105
2017-06-23T07:51:27.111Z,105
2017-06-23T07:52:27.821Z,110
2017-06-23T07:53:28.512Z,110
2017-06-23T07:54:29.206Z,110
2017-06-23T07:55:29.883Z,115
2017-06-23T07:56:30.996Z,120
2017-06-23T07:57:31.675Z,125
2017-06-23T07:58:32.433Z,130
2017-06-23T07:59:33.109Z,135
2017-06-23T08:00:33.802Z,135
2017-06-23T08:01:34.598Z,140
2017-06-23T08:02:35.597Z,135
2017-06-23T08:03:36.284Z,135
2017-06-23T08:04:37.031Z,135
2017-06-23T08:05:37.759Z,140
2017-06-23T08:06:38.821Z,145
2017-06-23T08:07:39.514Z,150
2017-06-23T08:08:40.509Z,160
2017-06-23T08:09:41.202Z,160
2017-06-23T08:10:42.087Z,165
2017-06-23T08:11:42.782Z,165
2017-06-23T08:12:43.469Z,160
2017-06-23T08:13:44.170Z,160
2017-06-23T08:14:45.178Z,155
2017-06-23T08:15:46.710Z,155
2017-06-23T08:16:47.407Z,155
2017-06-23T08:17:48.092Z,155
2017-06-23T08:18:48.790Z,155
2017-06-23T08:19:49.490Z,155
2017-06-23T08:20:50.615Z,155
2017-06-23T08:21:51.307Z,155
2017-06-23T08:22:51.998Z,155
2017-06-23T08:23:52.696Z,155
2017-06-23T08:24:53.386Z,155
2017-06-23T08:25:54.223Z,155
2017-06-23T08:26:55.228Z,155
2017-06-23T08:27:55.937Z,160
2017-06-23T08:28:56.615Z,160
2017-06-23T08:29:57.300Z,165
2017-06-23T08:30:58.047Z,165
2017-06-23T08:31:58.750Z,165
2017-06-23T08:32:59.440Z,170
2017-06-23T08:34:00.436Z,170
2017-06-23T08:35:01.172Z,175
2017-06-23T08:36:01.923Z,175
2017-06-23T08:37:02.628Z,185
2017-06-23T08:38:03.319Z,185
2017-06-23T08:39:04.007Z,190
2017-06-23T08:40:05.002Z,185
2017-06-23T08:41:05.785Z,180
2017-06-23T08:42:06.544Z,190
2017-06-23T08:43:07.258Z,195
2017-06-23T08:44:07.987Z,200
2017-06-23T08:45:08.688Z,205
2017-06-23T08:46:10.133Z,210
2017-06-23T08:47:10.848Z,210
2017-06-23T08:48:11.550Z,215
2017-06-23T08:49:12.245Z,215
2017-06-23T08:50:12.937Z,215
2017-06-23T08:51:13.667Z,215
2017-06-23T08:52:14.739Z,210
2017-06-23T08:53:15.420Z,215
2017-06-23T08:54:16.112Z,215
2017-06-23T08:55:16.806Z,210
2017-06-23T08:56:17.613Z,210
2017-06-23T08:58:34.168Z,205
2017-06-23T08:59:34.864Z,205
2017-06-23T09:00:35.546Z,200
2017-06-23T09:01:36.290Z,195
2017-06-23T09:02:36.993Z,200
2017-06-23T09:03:37.682Z,200
2017-06-23T09:04:38.722Z,195
2017-06-23T09:05:39.397Z,195
2017-06-23T09:06:40.129Z,190
2017-06-23T09:07:40.838Z,185
2017-06-23T09:08:41.586Z,185
2017-06-23T09:09:42.291Z,180
2017-06-23T09:10:43.311Z,185
2017-06-23T09:11:44.124Z,185
2017-06-23T09:12:44.809Z,185
2017-06-23T09:13:45.567Z,180
2017-06-23T09:14:46.216Z,180
2017-06-23T09:15:46.904Z,180
2017-06-23T09:16:47.688Z,175
2017-06-23T09:17:48.737Z,170
2017-06-23T09:18:49.436Z,175
2017-06-23T09:19:50.140Z,185
2017-06-23T09:20:50.820Z,195
2017-06-23T09:21:51.567Z,185
2017-06-23T09:22:52.566Z,180
2017-06-23T09:23:53.254Z,170
2017-06-23T09:24:53.968Z,170
2017-06-23T09:25:54.638Z,170
2017-06-23T09:26:55.426Z,170
2017-06-23T09:27:56.127Z,170
2017-06-23T09:28:57.146Z,175
2017-06-23T09:29:57.840Z,175
2017-06-23T09:30:58.534Z,180
2017-06-23T09:31:59.338Z,185
2017-06-23T09:32:59.980Z,190
2017-06-23T09:34:00.692Z,185
2017-06-23T09:35:01.759Z,185
2017-06-23T09:36:02.450Z,185
2017-06-23T09:37:03.190Z,175
2017-06-23T09:38:03.898Z,160
2017-06-23T09:39:04.578Z,160
2017-06-23T09:40:05.329Z,165
2017-06-23T09:41:06.320Z,170
2017-06-23T09:42:06.999Z,185
2017-06-23T09:43:07.700Z,190
2017-06-23T09:44:08.446Z,195
2017-06-23T09:45:09.385Z,195
2017-06-23T09:46:10.092Z,195
2017-06-23T09:47:11.088Z,200
2017-06-23T09:48:11.781Z,200
2017-06-23T09:49:12.470Z,210
2017-06-23T09:50:13.212Z,195
2017-06-23T09:51:13.957Z,190
2017-06-23T09:52:14.951Z,190
2017-06-23T09:53:15.636Z,190
2017-06-23T09:54:16.330Z,195
2017-06-23T09:55:17.083Z,195
2017-06-23T09:56:17.765Z,200
2017-06-23T09:57:18.460Z,200
2017-06-23T09:58:19.454Z,195
2017-06-23T09:59:20.192Z,200
2017-06-23T10:00:21.092Z,210
2017-06-23T10:01:21.776Z,220
2017-06-23T10:02:22.494Z,215
2017-06-23T10:03:23.178Z,215
2017-06-23T10:04:24.186Z,205
2017-06-23T10:05:24.924Z,190
2017-06-23T10:06:25.619Z,185
2017-06-23T10:07:26.338Z,190
2017-06-23T10:08:27.055Z,200
2017-06-23T10:09:28.037Z,200
2017-06-23T10:10:28.829Z,205
2017-06-23T10:11:29.517Z,210
2017-06-23T10:12:30.218Z,215
2017-06-23T10:13:30.937Z,225
2017-06-23T10:14:31.625Z,225
2017-06-23T10:15:32.777Z,215
2017-06-23T10:16:33.474Z,205
2017-06-23T10:17:34.218Z,205
2017-06-23T10:18:34.906Z,200
2017-06-23T10:19:35.586Z,200
2017-06-23T10:20:36.642Z,210
2017-06-23T10:21:37.341Z,210
2017-06-23T10:22:38.069Z,225
2017-06-23T10:23:38.770Z,230
2017-06-23T10:24:39.462Z,235
2017-06-23T10:25:40.557Z,220
2017-06-23T10:26:41.548Z,220
2017-06-23T10:27:42.246Z,215
2017-06-23T10:28:42.938Z,200
2017-06-23T10:29:43.686Z,200
2017-06-23T10:30:44.774Z,210
2017-06-23T10:31:45.466Z,215
2017-06-23T10:32:46.153Z,215
2017-06-23T10:33:47.145Z,205
2017-06-23T10:34:47.850Z,195
2017-06-23T10:35:48.714Z,190
2017-06-23T10:36:49.429Z,180
2017-06-23T10:37:50.107Z,190
2017-06-23T10:38:51.102Z,195
2017-06-23T10:39:51.845Z,195
2017-06-23T10:40:52.685Z,195
2017-06-23T10:41:53.372Z,190
2017-06-23T10:42:54.102Z,190
2017-06-23T10:43:54.852Z,200
2017-06-23T10:44:55.892Z,200
2017-06-23T10:45:56.833Z,205
2017-06-23T10:46:57.571Z,210
2017-06-23T10:47:58.272Z,215
2017-06-23T10:48:59.007Z,215
2017-06-23T10:50:00.026Z,205
2017-06-23T10:51:00.702Z,195
2017-06-23T10:52:01.437Z,185
2017-06-23T10:53:02.146Z,175
2017-06-23T10:54:02.877Z,175
2017-06-23T10:55:03.560Z,175
2017-06-23T10:56:04.573Z,175
2017-06-23T10:57:05.309Z,185
2017-06-23T10:58:06.034Z,190
2017-06-23T10:59:06.757Z,185
2017-06-23T11:00:07.413Z,175
2017-06-23T11:01:08.108Z,170
2017-06-23T11:02:09.193Z,165
2017-06-23T11:03:09.899Z,170
2017-06-23T11:04:10.605Z,175
2017-06-23T11:05:11.301Z,185
2017-06-23T11:06:11.991Z,190
2017-06-23T11:07:13.142Z,205
2017-06-23T11:08:13.818Z,215
2017-06-23T11:09:14.527Z,225
2017-06-23T11:10:15.213Z,230
2017-06-23T11:11:15.925Z,215
2017-06-23T11:12:16.795Z,205
2017-06-23T11:13:17.815Z,200
2017-06-23T11:14:18.509Z,180
2017-06-23T11:15:19.249Z,170
2017-06-23T11:16:19.949Z,175
2017-06-23T11:17:20.712Z,185
2017-06-23T11:18:21.680Z,200
2017-06-23T11:19:22.441Z,205
2017-06-23T11:20:23.128Z,215
2017-06-23T11:21:23.815Z,215
2017-06-23T11:22:24.563Z,210
2017-06-23T11:23:25.253Z,210
2017-06-23T11:24:26.269Z,215
2017-06-23T11:25:27.013Z,215
2017-06-23T11:26:27.694Z,205
2017-06-23T11:27:28.707Z,205
2017-06-23T11:28:29.396Z,195
2017-06-23T11:29:30.148Z,190
2017-06-23T11:30:31.134Z,195
2017-06-23T11:31:31.828Z,195
2017-06-23T11:32:32.615Z,195
2017-06-23T11:33:33.319Z,205
2017-06-23T11:34:34.030Z,210
2017-06-23T11:35:35.447Z,205
2017-06-23T11:36:36.269Z,200
2017-06-23T11:37:37.649Z,205
2017-06-23T11:38:38.370Z,205
2017-06-23T11:39:39.066Z,200
2017-06-23T11:40:39.783Z,200
2017-06-23T11:41:40.990Z,205
2017-06-23T11:42:41.812Z,210
2017-06-23T11:43:42.501Z,210
2017-06-23T11:44:43.175Z,210
2017-06-23T11:45:43.893Z,220
2017-06-23T11:46:44.579Z,225
2017-06-23T11:47:45.722Z,220
2017-06-23T11:48:46.400Z,205
2017-06-23T11:49:47.154Z,190
2017-06-23T11:50:47.846Z,175
2017-06-23T11:51:48.547Z,185
2017-06-23T11:52:49.472Z,190
2017-06-23T11:53:50.519Z,200
2017-06-23T11:54:51.201Z,200
2017-06-23T11:55:51.934Z,210
2017-06-23T11:56:52.718Z,205
2017-06-23T11:57:53.700Z,195
2017-06-23T11:58:54.445Z,195
2017-06-23T11:59:55.521Z,190
2017-06-23T12:00:56.184Z,185
2017-06-23T12:01:56.922Z,185
2017-06-23T12:02:57.755Z,190
2017-06-23T12:03:58.460Z,190
2017-06-23T12:04:59.452Z,190
2017-06-23T12:06:00.150Z,190
2017-06-23T12:07:00.858Z,190
2017-06-23T12:08:01.656Z,185
2017-06-23T12:09:02.335Z,180
2017-06-23T12:10:03.028Z,185
2017-06-23T12:11:04.022Z,190
2017-06-23T12:12:04.711Z,195
2017-06-23T12:13:05.511Z,210
2017-06-23T12:14:06.239Z,230
2017-06-23T12:15:06.947Z,240
2017-06-23T12:16:07.952Z,250
2017-06-23T12:17:08.634Z,240
2017-06-23T12:18:09.600Z,220
2017-06-23T12:19:10.336Z,220
2017-06-23T12:20:11.038Z,235
2017-06-23T12:21:11.717Z,240
2017-06-23T12:22:12.410Z,250
2017-06-23T12:23:13.669Z,255
2017-06-23T12:24:14.360Z,265
2017-06-23T12:25:15.066Z,260
2017-06-23T12:26:15.746Z,250
2017-06-23T12:27:16.457Z,235
2017-06-23T12:28:17.364Z,230
2017-06-23T12:29:18.060Z,215
2017-06-23T12:30:18.816Z,205
2017-06-23T12:31:19.717Z,190
2017-06-23T12:32:20.412Z,190
2017-06-23T12:33:21.286Z,205
2017-06-23T12:34:21.949Z,215
2017-06-23T12:35:22.931Z,220
2017-06-23T12:36:23.860Z,205
2017-06-23T12:37:24.550Z,195
2017-06-23T12:38:25.359Z,215
2017-06-23T12:39:26.051Z,240
2017-06-23T12:40:26.748Z,260
2017-06-23T12:41:27.753Z,260
2017-06-23T12:42:28.460Z,240
2017-06-23T12:43:29.351Z,230
2017-06-23T12:44:30.062Z,240
2017-06-23T12:45:30.765Z,240
2017-06-23T12:46:31.748Z,245
2017-06-23T12:47:32.463Z,250
2017-06-23T12:48:33.346Z,245
2017-06-23T12:49:34.030Z,250
2017-06-23T12:50:34.724Z,250
2017-06-23T12:51:35.412Z,250
2017-06-23T12:52:36.412Z,240
2017-06-23T12:53:37.159Z,255
2017-06-23T12:54:37.887Z,270
2017-06-23T12:55:38.587Z,275
2017-06-23T12:56:39.332Z,265
2017-06-23T12:57:40.024Z,250
2017-06-23T12:58:41.176Z,230
2017-06-23T12:59:41.865Z,235
2017-06-23T13:00:42.568Z,245
2017-06-23T13:01:43.330Z,240
2017-06-23T13:02:44.012Z,270
2017-06-23T13:03:45.210Z,290
2017-06-23T13:04:46.204Z,285
2017-06-23T13:05:46.896Z,275
2017-06-23T13:06:47.669Z,260
2017-06-23T13:07:48.413Z,220
2017-06-23T13:08:49.777Z,230
2017-06-23T13:09:51.268Z,275
2017-06-23T13:10:52.310Z,275
2017-06-23T13:11:53.312Z,285
2017-06-23T13:12:54.028Z,245
2017-06-23T13:13:54.752Z,245
2017-06-23T13:14:55.461Z,255
2017-06-23T13:15:56.197Z,255
2017-06-23T13:16:57.413Z,265
2017-06-23T13:17:58.111Z,240
2017-06-23T13:18:59.048Z,270
2017-06-23T13:19:59.753Z,575
2017-06-23T13:21:00.536Z,485
2017-06-23T13:22:01.227Z,230
2017-06-23T13:23:02.286Z,250
2017-06-23T13:24:03.086Z,260
2017-06-23T13:25:03.850Z,645
2017-06-23T13:26:04.580Z,265
2017-06-23T13:27:05.346Z,270
2017-06-23T13:28:06.319Z,290
2017-06-23T13:29:07.141Z,785
2017-06-23T13:30:07.837Z,795
2017-06-23T13:31:08.575Z,785
2017-06-23T13:32:09.281Z,320
2017-06-23T13:33:10.081Z,475
2017-06-23T13:34:11.085Z,765
2017-06-23T13:35:12.298Z,490
2017-06-23T13:36:12.998Z,885
2017-06-23T13:37:13.765Z,920
2017-06-23T13:38:15.054Z,960
2017-06-23T13:39:16.118Z,875
2017-06-23T13:40:16.918Z,935
2017-06-23T13:41:17.606Z,990
2017-06-23T13:42:18.291Z,640
2017-06-23T13:43:19.011Z,960
2017-06-23T13:44:19.717Z,1000
2017-06-23T13:45:21.436Z,970
2017-06-23T13:46:23.061Z,310
2017-06-23T13:47:23.747Z,270
2017-06-23T13:48:24.459Z,1000
2017-06-23T13:49:25.145Z,990
2017-06-23T13:50:26.226Z,1065
2017-06-23T13:51:26.938Z,855
2017-06-23T13:52:27.655Z,995
2017-06-23T13:53:28.361Z,1065
2017-06-23T13:54:29.070Z,1050
2017-06-23T13:55:29.827Z,960
2017-06-23T13:56:30.818Z,1120
2017-06-23T13:57:31.573Z,1115
2017-06-23T13:58:32.638Z,770
2017-06-23T13:59:33.331Z,1110
2017-06-23T14:00:34.123Z,200
2017-06-23T14:01:34.862Z,235
2017-06-23T14:02:35.913Z,270
2017-06-23T14:03:36.614Z,300
2017-06-23T14:04:37.311Z,300
2017-06-23T14:05:38.356Z,340
2017-06-23T14:06:39.060Z,1225
2017-06-23T14:07:39.752Z,1080
2017-06-23T14:08:40.769Z,320
2017-06-23T14:09:41.470Z,510
2017-06-23T14:10:42.250Z,295
2017-06-23T14:11:42.949Z,370
2017-06-23T14:12:43.634Z,500
2017-06-23T14:13:44.355Z,1245
2017-06-23T14:14:45.346Z,1255
2017-06-23T14:15:46.244Z,1150
2017-06-23T14:16:47.024Z,1125
2017-06-23T14:17:47.765Z,1140
2017-06-23T14:18:48.467Z,1205
2017-06-23T14:19:49.566Z,1250
2017-06-23T14:20:50.366Z,1290